sensor_id;sensor_type;location;lat;lon;timestamp;temperature;humidity
55777;DHT22;54079;44.540;18.784;2023-02-28T00:00:33;4.60;87.30
55777;DHT22;54079;44.540;18.784;2023-02-28T00:03:00;4.80;87.30
55777;DHT22;54079;44.540;18.784;2023-02-28T00:05:27;4.80;86.60
55777;DHT22;54079;44.540;18.784;2023-02-28T00:07:53;4.60;86.80
55777;DHT22;54079;44.540;18.784;2023-02-28T00:10:24;4.80;88.10
55777;DHT22;54079;44.540;18.784;2023-02-28T00:12:53;4.90;86.40
55777;DHT22;54079;44.540;18.784;2023-02-28T00:15:20;4.90;87.10
55777;DHT22;54079;44.540;18.784;2023-02-28T00:17:48;4.80;85.90
55777;DHT22;54079;44.540;18.784;2023-02-28T00:20:14;4.80;83.90
55777;DHT22;54079;44.540;18.784;2023-02-28T00:22:44;4.80;84.50
55777;DHT22;54079;44.540;18.784;2023-02-28T00:25:12;4.70;85.10
55777;DHT22;54079;44.540;18.784;2023-02-28T00:27:39;4.80;86.10
55777;DHT22;54079;44.540;18.784;2023-02-28T00:30:07;4.80;85.70
55777;DHT22;54079;44.540;18.784;2023-02-28T00:32:35;4.90;86.40
55777;DHT22;54079;44.540;18.784;2023-02-28T00:35:03;4.90;86.40
55777;DHT22;54079;44.540;18.784;2023-02-28T00:37:29;5.00;87.10
55777;DHT22;54079;44.540;18.784;2023-02-28T00:39:56;5.00;84.80
55777;DHT22;54079;44.540;18.784;2023-02-28T00:42:22;4.90;84.40
55777;DHT22;54079;44.540;18.784;2023-02-28T00:44:48;4.80;83.80
55777;DHT22;54079;44.540;18.784;2023-02-28T00:47:14;4.80;84.40
55777;DHT22;54079;44.540;18.784;2023-02-28T00:49:40;4.80;85.50
55777;DHT22;54079;44.540;18.784;2023-02-28T00:52:06;4.90;85.20
55777;DHT22;54079;44.540;18.784;2023-02-28T00:54:32;4.90;86.00
55777;DHT22;54079;44.540;18.784;2023-02-28T00:56:59;4.90;85.00
55777;DHT22;54079;44.540;18.784;2023-02-28T00:59:25;4.90;85.00
55777;DHT22;54079;44.540;18.784;2023-02-28T01:01:51;4.90;85.40
55777;DHT22;54079;44.540;18.784;2023-02-28T01:04:17;4.80;85.60
55777;DHT22;54079;44.540;18.784;2023-02-28T01:06:43;4.60;85.80
55777;DHT22;54079;44.540;18.784;2023-02-28T01:09:09;4.70;86.40
55777;DHT22;54079;44.540;18.784;2023-02-28T01:11:36;4.80;86.10
55777;DHT22;54079;44.540;18.784;2023-02-28T01:14:02;4.60;86.60
55777;DHT22;54079;44.540;18.784;2023-02-28T01:16:29;4.50;87.00
55777;DHT22;54079;44.540;18.784;2023-02-28T01:18:56;4.40;87.10
55777;DHT22;54079;44.540;18.784;2023-02-28T01:21:23;4.40;88.40
55777;DHT22;54079;44.540;18.784;2023-02-28T01:23:49;4.50;87.40
55777;DHT22;54079;44.540;18.784;2023-02-28T01:26:20;4.50;86.20
55777;DHT22;54079;44.540;18.784;2023-02-28T01:28:47;4.60;88.00
55777;DHT22;54079;44.540;18.784;2023-02-28T01:31:13;4.70;86.00
55777;DHT22;54079;44.540;18.784;2023-02-28T01:33:40;4.70;85.30
55777;DHT22;54079;44.540;18.784;2023-02-28T01:36:10;4.80;85.20
55777;DHT22;54079;44.540;18.784;2023-02-28T01:38:36;4.90;84.30
55777;DHT22;54079;44.540;18.784;2023-02-28T01:41:03;4.90;84.60
55777;DHT22;54079;44.540;18.784;2023-02-28T01:44:03;5.00;84.00
55777;DHT22;54079;44.540;18.784;2023-02-28T01:46:30;4.90;84.00
55777;DHT22;54079;44.540;18.784;2023-02-28T01:49:05;4.90;84.00
55777;DHT22;54079;44.540;18.784;2023-02-28T01:51:53;4.90;83.70
55777;DHT22;54079;44.540;18.784;2023-02-28T01:54:31;5.00;84.00
55777;DHT22;54079;44.540;18.784;2023-02-28T01:57:02;4.90;83.10
55777;DHT22;54079;44.540;18.784;2023-02-28T01:59:34;4.90;83.50
55777;DHT22;54079;44.540;18.784;2023-02-28T02:02:02;5.00;84.10
55777;DHT22;54079;44.540;18.784;2023-02-28T02:04:46;5.00;82.90
55777;DHT22;54079;44.540;18.784;2023-02-28T02:07:14;5.10;83.20
55777;DHT22;54079;44.540;18.784;2023-02-28T02:09:40;5.10;83.50
55777;DHT22;54079;44.540;18.784;2023-02-28T02:12:20;5.10;82.20
55777;DHT22;54079;44.540;18.784;2023-02-28T02:16:04;5.10;82.80
55777;DHT22;54079;44.540;18.784;2023-02-28T02:24:07;5.10;82.90
55777;DHT22;54079;44.540;18.784;2023-02-28T02:26:55;5.00;82.50
55777;DHT22;54079;44.540;18.784;2023-02-28T02:43:40;4.90;83.10
55777;DHT22;54079;44.540;18.784;2023-02-28T02:46:19;4.70;83.00
55777;DHT22;54079;44.540;18.784;2023-02-28T02:48:47;4.80;83.60
55777;DHT22;54079;44.540;18.784;2023-02-28T02:51:16;4.90;83.70
55777;DHT22;54079;44.540;18.784;2023-02-28T02:53:50;4.70;82.20
55777;DHT22;54079;44.540;18.784;2023-02-28T02:56:21;4.80;83.70
55777;DHT22;54079;44.540;18.784;2023-02-28T02:58:50;4.80;83.10
55777;DHT22;54079;44.540;18.784;2023-02-28T03:01:20;4.80;83.20
55777;DHT22;54079;44.540;18.784;2023-02-28T03:03:58;4.90;82.60
55777;DHT22;54079;44.540;18.784;2023-02-28T03:06:25;4.90;81.90
55777;DHT22;54079;44.540;18.784;2023-02-28T03:08:51;4.70;81.70
55777;DHT22;54079;44.540;18.784;2023-02-28T03:11:18;4.70;83.50
55777;DHT22;54079;44.540;18.784;2023-02-28T03:17:07;4.60;82.10
55777;DHT22;54079;44.540;18.784;2023-02-28T03:22:43;4.50;82.80
55777;DHT22;54079;44.540;18.784;2023-02-28T03:25:37;4.60;83.60
55777;DHT22;54079;44.540;18.784;2023-02-28T03:36:07;4.50;82.80
55777;DHT22;54079;44.540;18.784;2023-02-28T03:38:35;4.40;82.80
55777;DHT22;54079;44.540;18.784;2023-02-28T03:44:37;4.00;84.10
55777;DHT22;54079;44.540;18.784;2023-02-28T03:47:10;3.90;84.20
55777;DHT22;54079;44.540;18.784;2023-02-28T03:49:46;4.00;84.10
55777;DHT22;54079;44.540;18.784;2023-02-28T03:52:17;3.90;84.60
55777;DHT22;54079;44.540;18.784;2023-02-28T03:54:48;4.10;84.20
55777;DHT22;54079;44.540;18.784;2023-02-28T03:57:35;4.10;83.40
55777;DHT22;54079;44.540;18.784;2023-02-28T04:00:20;4.10;84.00
55777;DHT22;54079;44.540;18.784;2023-02-28T04:02:47;4.10;83.80
55777;DHT22;54079;44.540;18.784;2023-02-28T04:05:19;4.20;83.50
55777;DHT22;54079;44.540;18.784;2023-02-28T04:07:45;4.20;82.90
55777;DHT22;54079;44.540;18.784;2023-02-28T04:10:12;4.30;82.60
55777;DHT22;54079;44.540;18.784;2023-02-28T04:12:38;4.30;82.10
55777;DHT22;54079;44.540;18.784;2023-02-28T04:15:04;4.20;82.70
55777;DHT22;54079;44.540;18.784;2023-02-28T04:17:31;4.10;83.10
55777;DHT22;54079;44.540;18.784;2023-02-28T04:19:57;3.90;84.90
55777;DHT22;54079;44.540;18.784;2023-02-28T04:22:23;4.00;84.70
55777;DHT22;54079;44.540;18.784;2023-02-28T04:24:52;3.90;85.70
55777;DHT22;54079;44.540;18.784;2023-02-28T04:27:19;3.90;85.10
55777;DHT22;54079;44.540;18.784;2023-02-28T04:29:45;3.80;85.50
55777;DHT22;54079;44.540;18.784;2023-02-28T04:32:11;3.80;86.60
55777;DHT22;54079;44.540;18.784;2023-02-28T04:34:37;3.90;85.90
55777;DHT22;54079;44.540;18.784;2023-02-28T04:37:03;4.00;85.70
55777;DHT22;54079;44.540;18.784;2023-02-28T04:39:30;4.10;85.20
55777;DHT22;54079;44.540;18.784;2023-02-28T04:41:56;3.80;84.10
55777;DHT22;54079;44.540;18.784;2023-02-28T04:44:22;3.70;84.40
55777;DHT22;54079;44.540;18.784;2023-02-28T04:46:49;3.80;84.70
55777;DHT22;54079;44.540;18.784;2023-02-28T04:49:15;3.70;85.10
55777;DHT22;54079;44.540;18.784;2023-02-28T04:51:41;3.70;83.50
55777;DHT22;54079;44.540;18.784;2023-02-28T04:54:08;3.90;83.80
55777;DHT22;54079;44.540;18.784;2023-02-28T04:56:34;3.90;83.00
55777;DHT22;54079;44.540;18.784;2023-02-28T04:59:00;3.90;82.70
55777;DHT22;54079;44.540;18.784;2023-02-28T05:01:28;3.90;83.80
55777;DHT22;54079;44.540;18.784;2023-02-28T05:03:56;3.80;83.90
55777;DHT22;54079;44.540;18.784;2023-02-28T05:06:24;3.90;84.40
55777;DHT22;54079;44.540;18.784;2023-02-28T05:08:50;3.90;83.10
55777;DHT22;54079;44.540;18.784;2023-02-28T05:11:19;4.00;83.30
55777;DHT22;54079;44.540;18.784;2023-02-28T05:13:45;3.90;82.70
55777;DHT22;54079;44.540;18.784;2023-02-28T05:16:11;3.70;84.60
55777;DHT22;54079;44.540;18.784;2023-02-28T05:18:37;3.70;84.80
55777;DHT22;54079;44.540;18.784;2023-02-28T05:21:04;3.70;83.80
55777;DHT22;54079;44.540;18.784;2023-02-28T05:23:30;3.40;84.90
55777;DHT22;54079;44.540;18.784;2023-02-28T05:25:56;3.70;85.00
55777;DHT22;54079;44.540;18.784;2023-02-28T05:28:22;3.70;85.20
55777;DHT22;54079;44.540;18.784;2023-02-28T05:30:48;3.60;84.10
55777;DHT22;54079;44.540;18.784;2023-02-28T05:33:14;3.50;85.00
55777;DHT22;54079;44.540;18.784;2023-02-28T05:35:41;3.60;85.50
55777;DHT22;54079;44.540;18.784;2023-02-28T05:38:08;3.60;85.10
55777;DHT22;54079;44.540;18.784;2023-02-28T05:40:35;3.80;84.10
55777;DHT22;54079;44.540;18.784;2023-02-28T05:43:01;4.00;84.10
55777;DHT22;54079;44.540;18.784;2023-02-28T05:45:27;4.10;83.50
55777;DHT22;54079;44.540;18.784;2023-02-28T05:47:54;4.20;82.10
55777;DHT22;54079;44.540;18.784;2023-02-28T05:50:20;4.20;82.90
55777;DHT22;54079;44.540;18.784;2023-02-28T05:52:50;4.30;82.90
55777;DHT22;54079;44.540;18.784;2023-02-28T05:55:16;4.50;82.60
55777;DHT22;54079;44.540;18.784;2023-02-28T05:57:42;4.40;81.40
55777;DHT22;54079;44.540;18.784;2023-02-28T06:00:10;4.50;82.10
55777;DHT22;54079;44.540;18.784;2023-02-28T06:02:43;4.30;79.70
55777;DHT22;54079;44.540;18.784;2023-02-28T06:05:18;4.40;81.70
55777;DHT22;54079;44.540;18.784;2023-02-28T06:07:45;4.50;80.30
55777;DHT22;54079;44.540;18.784;2023-02-28T06:10:12;4.50;80.90
55777;DHT22;54079;44.540;18.784;2023-02-28T06:12:39;4.70;80.10
55777;DHT22;54079;44.540;18.784;2023-02-28T06:15:10;4.60;79.50
55777;DHT22;54079;44.540;18.784;2023-02-28T06:17:37;4.60;79.20
55777;DHT22;54079;44.540;18.784;2023-02-28T06:20:04;4.50;79.50
55777;DHT22;54079;44.540;18.784;2023-02-28T06:22:30;4.60;79.80
55777;DHT22;54079;44.540;18.784;2023-02-28T06:24:57;4.70;80.50
55777;DHT22;54079;44.540;18.784;2023-02-28T06:27:23;4.40;79.90
55777;DHT22;54079;44.540;18.784;2023-02-28T06:29:54;4.40;80.30
55777;DHT22;54079;44.540;18.784;2023-02-28T06:32:22;4.40;81.10
55777;DHT22;54079;44.540;18.784;2023-02-28T06:34:48;4.30;81.60
55777;DHT22;54079;44.540;18.784;2023-02-28T06:37:17;4.30;80.10
55777;DHT22;54079;44.540;18.784;2023-02-28T06:39:44;4.30;81.10
55777;DHT22;54079;44.540;18.784;2023-02-28T06:42:10;4.40;80.60
55777;DHT22;54079;44.540;18.784;2023-02-28T06:44:38;4.40;80.10
55777;DHT22;54079;44.540;18.784;2023-02-28T06:47:05;4.40;80.10
55777;DHT22;54079;44.540;18.784;2023-02-28T06:49:33;4.50;80.90
55777;DHT22;54079;44.540;18.784;2023-02-28T06:52:00;4.70;80.70
55777;DHT22;54079;44.540;18.784;2023-02-28T06:54:30;4.50;80.30
55777;DHT22;54079;44.540;18.784;2023-02-28T06:56:59;4.80;81.30
55777;DHT22;54079;44.540;18.784;2023-02-28T06:59:26;5.10;79.70
55777;DHT22;54079;44.540;18.784;2023-02-28T07:01:52;5.40;78.10
55777;DHT22;54079;44.540;18.784;2023-02-28T07:04:19;5.50;78.90
55777;DHT22;54079;44.540;18.784;2023-02-28T07:06:45;5.70;78.00
55777;DHT22;54079;44.540;18.784;2023-02-28T07:09:12;5.90;76.70
55777;DHT22;54079;44.540;18.784;2023-02-28T07:11:40;6.10;76.10
55777;DHT22;54079;44.540;18.784;2023-02-28T07:14:08;5.90;74.90
55777;DHT22;54079;44.540;18.784;2023-02-28T07:16:35;5.90;77.10
55777;DHT22;54079;44.540;18.784;2023-02-28T07:19:03;5.80;76.90
55777;DHT22;54079;44.540;18.784;2023-02-28T07:21:31;5.80;76.70
55777;DHT22;54079;44.540;18.784;2023-02-28T07:23:58;5.90;76.70
55777;DHT22;54079;44.540;18.784;2023-02-28T07:26:24;5.80;76.70
55777;DHT22;54079;44.540;18.784;2023-02-28T07:28:51;5.70;77.30
55777;DHT22;54079;44.540;18.784;2023-02-28T07:31:19;5.70;76.90
55777;DHT22;54079;44.540;18.784;2023-02-28T07:33:45;6.00;76.70
55777;DHT22;54079;44.540;18.784;2023-02-28T07:36:16;6.20;75.50
55777;DHT22;54079;44.540;18.784;2023-02-28T07:38:47;6.00;75.20
55777;DHT22;54079;44.540;18.784;2023-02-28T07:41:17;6.00;75.30
55777;DHT22;54079;44.540;18.784;2023-02-28T07:43:44;6.10;75.80
55777;DHT22;54079;44.540;18.784;2023-02-28T07:46:13;6.40;75.40
55777;DHT22;54079;44.540;18.784;2023-02-28T07:48:43;6.50;74.20
55777;DHT22;54079;44.540;18.784;2023-02-28T07:51:10;6.70;75.00
55777;DHT22;54079;44.540;18.784;2023-02-28T07:53:36;6.90;72.90
55777;DHT22;54079;44.540;18.784;2023-02-28T07:56:03;7.10;73.60
55777;DHT22;54079;44.540;18.784;2023-02-28T07:58:30;7.20;73.10
55777;DHT22;54079;44.540;18.784;2023-02-28T08:00:56;7.40;72.80
55777;DHT22;54079;44.540;18.784;2023-02-28T08:03:23;7.60;71.50
55777;DHT22;54079;44.540;18.784;2023-02-28T08:05:50;7.80;71.20
55777;DHT22;54079;44.540;18.784;2023-02-28T08:08:17;8.20;71.10
55777;DHT22;54079;44.540;18.784;2023-02-28T08:10:43;8.40;69.80
55777;DHT22;54079;44.540;18.784;2023-02-28T08:13:09;8.90;69.00
55777;DHT22;54079;44.540;18.784;2023-02-28T08:15:35;9.40;66.90
55777;DHT22;54079;44.540;18.784;2023-02-28T08:18:02;9.60;66.80
55777;DHT22;54079;44.540;18.784;2023-02-28T08:20:28;9.30;65.60
55777;DHT22;54079;44.540;18.784;2023-02-28T08:22:54;9.70;66.10
55777;DHT22;54079;44.540;18.784;2023-02-28T08:25:20;9.60;65.00
55777;DHT22;54079;44.540;18.784;2023-02-28T08:27:46;9.80;66.00
55777;DHT22;54079;44.540;18.784;2023-02-28T08:30:14;9.80;64.60
55777;DHT22;54079;44.540;18.784;2023-02-28T08:32:40;9.80;65.00
55777;DHT22;54079;44.540;18.784;2023-02-28T08:35:07;10.00;65.20
55777;DHT22;54079;44.540;18.784;2023-02-28T08:37:35;10.00;64.80
55777;DHT22;54079;44.540;18.784;2023-02-28T08:40:01;9.40;64.10
55777;DHT22;54079;44.540;18.784;2023-02-28T08:42:27;9.40;65.70
55777;DHT22;54079;44.540;18.784;2023-02-28T08:44:53;9.30;65.70
55777;DHT22;54079;44.540;18.784;2023-02-28T08:47:19;9.50;65.50
55777;DHT22;54079;44.540;18.784;2023-02-28T08:49:45;9.50;65.40
55777;DHT22;54079;44.540;18.784;2023-02-28T08:52:11;9.50;65.60
55777;DHT22;54079;44.540;18.784;2023-02-28T08:54:37;10.00;63.90
55777;DHT22;54079;44.540;18.784;2023-02-28T08:57:03;10.70;63.20
55777;DHT22;54079;44.540;18.784;2023-02-28T08:59:30;10.90;60.90
55777;DHT22;54079;44.540;18.784;2023-02-28T09:01:56;10.60;62.50
55777;DHT22;54079;44.540;18.784;2023-02-28T09:04:22;10.60;61.60
55777;DHT22;54079;44.540;18.784;2023-02-28T09:06:48;10.20;63.20
55777;DHT22;54079;44.540;18.784;2023-02-28T09:09:15;10.20;62.80
55777;DHT22;54079;44.540;18.784;2023-02-28T09:11:41;10.10;62.90
55777;DHT22;54079;44.540;18.784;2023-02-28T09:14:08;10.20;63.10
55777;DHT22;54079;44.540;18.784;2023-02-28T09:16:34;10.20;63.80
55777;DHT22;54079;44.540;18.784;2023-02-28T09:19:00;10.30;63.40
55777;DHT22;54079;44.540;18.784;2023-02-28T09:21:27;10.40;63.40
55777;DHT22;54079;44.540;18.784;2023-02-28T09:23:53;10.40;63.10
55777;DHT22;54079;44.540;18.784;2023-02-28T09:26:21;10.30;63.00
55777;DHT22;54079;44.540;18.784;2023-02-28T09:28:48;10.50;63.80
55777;DHT22;54079;44.540;18.784;2023-02-28T09:31:19;10.40;63.50
55777;DHT22;54079;44.540;18.784;2023-02-28T09:33:51;10.60;63.80
55777;DHT22;54079;44.540;18.784;2023-02-28T09:36:17;10.70;63.30
55777;DHT22;54079;44.540;18.784;2023-02-28T09:38:44;10.50;63.40
55777;DHT22;54079;44.540;18.784;2023-02-28T09:41:18;10.30;63.60
55777;DHT22;54079;44.540;18.784;2023-02-28T09:43:49;10.20;64.50
55777;DHT22;54079;44.540;18.784;2023-02-28T09:49:07;9.70;65.50
55777;DHT22;54079;44.540;18.784;2023-02-28T09:54:22;9.60;65.30
55777;DHT22;54079;44.540;18.784;2023-02-28T09:56:53;9.40;65.90
55777;DHT22;54079;44.540;18.784;2023-02-28T10:04:59;8.60;68.50
55777;DHT22;54079;44.540;18.784;2023-02-28T10:10:36;8.40;69.30
55777;DHT22;54079;44.540;18.784;2023-02-28T10:15:57;8.10;70.50
55777;DHT22;54079;44.540;18.784;2023-02-28T10:18:27;7.80;71.20
55777;DHT22;54079;44.540;18.784;2023-02-28T10:20:56;7.60;71.70
55777;DHT22;54079;44.540;18.784;2023-02-28T10:23:27;7.70;71.30
55777;DHT22;54079;44.540;18.784;2023-02-28T10:26:11;7.80;71.20
55777;DHT22;54079;44.540;18.784;2023-02-28T10:28:38;8.00;71.00
55777;DHT22;54079;44.540;18.784;2023-02-28T10:31:05;8.20;70.20
55777;DHT22;54079;44.540;18.784;2023-02-28T10:33:35;8.10;70.80
55777;DHT22;54079;44.540;18.784;2023-02-28T10:36:02;8.00;71.00
55777;DHT22;54079;44.540;18.784;2023-02-28T10:38:37;8.20;71.00
55777;DHT22;54079;44.540;18.784;2023-02-28T10:41:39;8.10;70.70
55777;DHT22;54079;44.540;18.784;2023-02-28T10:44:22;8.10;71.10
55777;DHT22;54079;44.540;18.784;2023-02-28T10:46:49;8.20;70.60
55777;DHT22;54079;44.540;18.784;2023-02-28T10:49:29;8.10;71.20
55777;DHT22;54079;44.540;18.784;2023-02-28T10:52:00;7.90;70.90
55777;DHT22;54079;44.540;18.784;2023-02-28T10:54:33;8.00;71.30
55777;DHT22;54079;44.540;18.784;2023-02-28T10:57:16;7.90;71.40
55777;DHT22;54079;44.540;18.784;2023-02-28T10:59:43;8.10;71.40
55777;DHT22;54079;44.540;18.784;2023-02-28T11:02:35;7.70;71.00
55777;DHT22;54079;44.540;18.784;2023-02-28T11:05:21;7.70;72.20
55777;DHT22;54079;44.540;18.784;2023-02-28T11:08:06;7.70;72.00
55777;DHT22;54079;44.540;18.784;2023-02-28T11:10:36;7.70;71.50
55777;DHT22;54079;44.540;18.784;2023-02-28T11:13:03;7.60;72.30
55777;DHT22;54079;44.540;18.784;2023-02-28T11:15:34;7.50;72.70
55777;DHT22;54079;44.540;18.784;2023-02-28T11:18:01;7.50;72.40
55777;DHT22;54079;44.540;18.784;2023-02-28T11:20:30;7.40;73.00
55777;DHT22;54079;44.540;18.784;2023-02-28T11:22:58;7.50;73.20
55777;DHT22;54079;44.540;18.784;2023-02-28T11:25:33;7.80;72.50
55777;DHT22;54079;44.540;18.784;2023-02-28T11:28:01;7.90;72.00
55777;DHT22;54079;44.540;18.784;2023-02-28T11:30:40;7.80;72.30
55777;DHT22;54079;44.540;18.784;2023-02-28T11:33:28;7.70;72.30
55777;DHT22;54079;44.540;18.784;2023-02-28T11:36:02;7.60;72.60
55777;DHT22;54079;44.540;18.784;2023-02-28T11:38:29;7.30;73.10
55777;DHT22;54079;44.540;18.784;2023-02-28T11:46:36;7.30;74.70
55777;DHT22;54079;44.540;18.784;2023-02-28T11:52:04;7.00;74.70
55777;DHT22;54079;44.540;18.784;2023-02-28T11:57:28;7.00;75.50
55777;DHT22;54079;44.540;18.784;2023-02-28T12:00:00;7.00;75.00
55777;DHT22;54079;44.540;18.784;2023-02-28T12:03:04;6.90;75.30
55777;DHT22;54079;44.540;18.784;2023-02-28T12:16:12;6.80;75.50
55777;DHT22;54079;44.540;18.784;2023-02-28T12:27:00;6.60;76.10
55777;DHT22;54079;44.540;18.784;2023-02-28T12:29:43;6.50;77.30
55777;DHT22;54079;44.540;18.784;2023-02-28T12:32:26;6.70;76.70
55777;DHT22;54079;44.540;18.784;2023-02-28T12:35:03;6.70;76.40
55777;DHT22;54079;44.540;18.784;2023-02-28T12:37:41;6.60;77.00
55777;DHT22;54079;44.540;18.784;2023-02-28T12:40:18;6.50;77.10
55777;DHT22;54079;44.540;18.784;2023-02-28T12:43:05;6.40;77.00
55777;DHT22;54079;44.540;18.784;2023-02-28T12:45:53;6.50;76.70
55777;DHT22;54079;44.540;18.784;2023-02-28T12:51:29;6.60;76.50
55777;DHT22;54079;44.540;18.784;2023-02-28T13:10:45;6.40;77.50
55777;DHT22;54079;44.540;18.784;2023-02-28T13:13:26;6.30;77.70
55777;DHT22;54079;44.540;18.784;2023-02-28T13:16:09;6.30;78.00
55777;DHT22;54079;44.540;18.784;2023-02-28T13:18:46;6.10;78.00
55777;DHT22;54079;44.540;18.784;2023-02-28T13:21:29;6.20;78.00
55777;DHT22;54079;44.540;18.784;2023-02-28T13:24:03;6.20;77.80
55777;DHT22;54079;44.540;18.784;2023-02-28T13:31:27;6.40;76.80
55777;DHT22;54079;44.540;18.784;2023-02-28T13:36:29;6.70;76.20
55777;DHT22;54079;44.540;18.784;2023-02-28T13:45:51;6.40;77.80
55777;DHT22;54079;44.540;18.784;2023-02-28T13:48:18;6.40;77.70
55777;DHT22;54079;44.540;18.784;2023-02-28T13:50:45;6.50;77.50
55777;DHT22;54079;44.540;18.784;2023-02-28T14:06:26;6.20;78.70
55777;DHT22;54079;44.540;18.784;2023-02-28T14:09:23;6.20;78.00
55777;DHT22;54079;44.540;18.784;2023-02-28T14:11:50;6.10;78.70
55777;DHT22;54079;44.540;18.784;2023-02-28T14:17:17;6.00;79.40
55777;DHT22;54079;44.540;18.784;2023-02-28T14:19:45;5.80;80.40
55777;DHT22;54079;44.540;18.784;2023-02-28T14:25:15;5.90;79.60
55777;DHT22;54079;44.540;18.784;2023-02-28T14:34:00;6.10;78.80
55777;DHT22;54079;44.540;18.784;2023-02-28T14:36:39;6.00;79.10
55777;DHT22;54079;44.540;18.784;2023-02-28T14:39:12;5.90;79.10
55777;DHT22;54079;44.540;18.784;2023-02-28T14:41:41;6.00;79.60
55777;DHT22;54079;44.540;18.784;2023-02-28T14:44:27;6.00;79.10
55777;DHT22;54079;44.540;18.784;2023-02-28T14:46:55;6.00;79.80
55777;DHT22;54079;44.540;18.784;2023-02-28T14:49:28;6.00;79.20
55777;DHT22;54079;44.540;18.784;2023-02-28T14:54:39;5.80;79.60
55777;DHT22;54079;44.540;18.784;2023-02-28T14:57:05;5.70;80.20
55777;DHT22;54079;44.540;18.784;2023-02-28T14:59:35;5.70;79.60
55777;DHT22;54079;44.540;18.784;2023-02-28T15:02:34;5.70;80.30
55777;DHT22;54079;44.540;18.784;2023-02-28T15:08:04;5.50;80.60
55777;DHT22;54079;44.540;18.784;2023-02-28T15:10:31;5.40;80.80
55777;DHT22;54079;44.540;18.784;2023-02-28T15:15:43;5.20;82.60
55777;DHT22;54079;44.540;18.784;2023-02-28T15:21:15;5.10;82.00
55777;DHT22;54079;44.540;18.784;2023-02-28T15:23:45;5.10;82.90
55777;DHT22;54079;44.540;18.784;2023-02-28T15:26:16;5.20;82.30
55777;DHT22;54079;44.540;18.784;2023-02-28T15:28:44;5.30;81.80
55777;DHT22;54079;44.540;18.784;2023-02-28T15:31:27;5.50;81.60
55777;DHT22;54079;44.540;18.784;2023-02-28T15:33:56;5.30;80.70
55777;DHT22;54079;44.540;18.784;2023-02-28T15:36:25;5.30;81.30
55777;DHT22;54079;44.540;18.784;2023-02-28T15:38:53;5.30;81.30
55777;DHT22;54079;44.540;18.784;2023-02-28T15:41:30;5.30;81.40
55777;DHT22;54079;44.540;18.784;2023-02-28T15:46:57;5.30;81.10
55777;DHT22;54079;44.540;18.784;2023-02-28T15:49:24;5.20;80.30
55777;DHT22;54079;44.540;18.784;2023-02-28T15:51:52;5.00;81.60
55777;DHT22;54079;44.540;18.784;2023-02-28T15:54:32;4.90;81.40
55777;DHT22;54079;44.540;18.784;2023-02-28T15:57:05;4.80;82.30
55777;DHT22;54079;44.540;18.784;2023-02-28T15:59:35;5.00;82.70
55777;DHT22;54079;44.540;18.784;2023-02-28T16:04:36;5.10;81.40
55777;DHT22;54079;44.540;18.784;2023-02-28T16:07:05;5.20;81.60
55777;DHT22;54079;44.540;18.784;2023-02-28T16:09:31;5.20;81.00
55777;DHT22;54079;44.540;18.784;2023-02-28T16:12:00;5.20;81.50
55777;DHT22;54079;44.540;18.784;2023-02-28T16:14:29;5.10;81.70
55777;DHT22;54079;44.540;18.784;2023-02-28T16:17:04;5.20;81.70
55777;DHT22;54079;44.540;18.784;2023-02-28T16:19:31;5.10;82.30
55777;DHT22;54079;44.540;18.784;2023-02-28T16:21:58;5.10;81.30
55777;DHT22;54079;44.540;18.784;2023-02-28T16:24:24;5.00;81.50
55777;DHT22;54079;44.540;18.784;2023-02-28T16:26:53;5.10;81.70
55777;DHT22;54079;44.540;18.784;2023-02-28T16:29:34;5.10;80.90
55777;DHT22;54079;44.540;18.784;2023-02-28T16:32:01;5.00;82.30
55777;DHT22;54079;44.540;18.784;2023-02-28T16:34:28;4.90;81.50
55777;DHT22;54079;44.540;18.784;2023-02-28T16:36:54;4.90;82.70
55777;DHT22;54079;44.540;18.784;2023-02-28T16:39:20;5.00;82.80
55777;DHT22;54079;44.540;18.784;2023-02-28T16:41:48;4.90;82.70
55777;DHT22;54079;44.540;18.784;2023-02-28T16:44:28;4.80;82.70
55777;DHT22;54079;44.540;18.784;2023-02-28T16:46:54;4.90;82.80
55777;DHT22;54079;44.540;18.784;2023-02-28T16:49:21;4.80;83.30
55777;DHT22;54079;44.540;18.784;2023-02-28T16:51:47;4.90;83.20
55777;DHT22;54079;44.540;18.784;2023-02-28T16:54:12;5.00;82.50
55777;DHT22;54079;44.540;18.784;2023-02-28T16:56:43;5.00;82.50
55777;DHT22;54079;44.540;18.784;2023-02-28T16:59:10;4.80;82.10
55777;DHT22;54079;44.540;18.784;2023-02-28T17:01:37;4.80;82.90
55777;DHT22;54079;44.540;18.784;2023-02-28T17:04:03;4.90;82.60
55777;DHT22;54079;44.540;18.784;2023-02-28T17:06:29;4.80;82.10
55777;DHT22;54079;44.540;18.784;2023-02-28T17:08:57;4.60;83.00
55777;DHT22;54079;44.540;18.784;2023-02-28T17:11:24;4.50;84.40
55777;DHT22;54079;44.540;18.784;2023-02-28T17:13:50;4.50;84.90
55777;DHT22;54079;44.540;18.784;2023-02-28T17:16:31;4.50;84.50
55777;DHT22;54079;44.540;18.784;2023-02-28T17:19:00;4.60;84.80
55777;DHT22;54079;44.540;18.784;2023-02-28T17:21:27;4.70;84.30
55777;DHT22;54079;44.540;18.784;2023-02-28T17:23:53;4.80;83.30
55777;DHT22;54079;44.540;18.784;2023-02-28T17:26:20;4.80;82.60
55777;DHT22;54079;44.540;18.784;2023-02-28T17:28:47;4.90;82.70
55777;DHT22;54079;44.540;18.784;2023-02-28T17:31:14;4.80;81.60
55777;DHT22;54079;44.540;18.784;2023-02-28T17:33:40;4.70;83.50
55777;DHT22;54079;44.540;18.784;2023-02-28T17:36:10;4.70;83.30
55777;DHT22;54079;44.540;18.784;2023-02-28T17:38:38;4.70;83.00
55777;DHT22;54079;44.540;18.784;2023-02-28T17:41:04;4.80;82.50
55777;DHT22;54079;44.540;18.784;2023-02-28T17:43:30;4.70;82.70
55777;DHT22;54079;44.540;18.784;2023-02-28T17:45:56;4.80;83.60
55777;DHT22;54079;44.540;18.784;2023-02-28T17:48:24;5.00;83.90
55777;DHT22;54079;44.540;18.784;2023-02-28T17:50:50;5.10;82.50
55777;DHT22;54079;44.540;18.784;2023-02-28T17:53:16;5.20;81.70
55777;DHT22;54079;44.540;18.784;2023-02-28T17:55:42;5.20;82.00
55777;DHT22;54079;44.540;18.784;2023-02-28T17:58:10;5.10;81.50
55777;DHT22;54079;44.540;18.784;2023-02-28T18:00:38;5.20;82.60
55777;DHT22;54079;44.540;18.784;2023-02-28T18:03:03;5.10;82.60
55777;DHT22;54079;44.540;18.784;2023-02-28T18:05:30;5.10;82.40
55777;DHT22;54079;44.540;18.784;2023-02-28T18:07:56;5.00;82.20
55777;DHT22;54079;44.540;18.784;2023-02-28T18:10:22;5.00;83.20
55777;DHT22;54079;44.540;18.784;2023-02-28T18:12:50;5.00;82.80
55777;DHT22;54079;44.540;18.784;2023-02-28T18:15:18;4.90;83.20
55777;DHT22;54079;44.540;18.784;2023-02-28T18:17:46;4.90;83.20
55777;DHT22;54079;44.540;18.784;2023-02-28T18:20:12;5.00;83.60
55777;DHT22;54079;44.540;18.784;2023-02-28T18:22:39;4.90;83.10
55777;DHT22;54079;44.540;18.784;2023-02-28T18:25:07;5.10;83.00
55777;DHT22;54079;44.540;18.784;2023-02-28T18:27:35;5.20;82.30